createdAt,value
2023-05-01T00:00:25.836Z,5.44
2023-05-01T00:03:13.841Z,5.42
2023-05-01T00:05:40.899Z,5.39
2023-05-01T00:08:07.365Z,5.37
2023-05-01T00:10:36.305Z,5.35
2023-05-01T00:13:03.957Z,5.33
2023-05-01T00:15:31.693Z,5.30
2023-05-01T00:17:58.688Z,5.27
2023-05-01T00:20:29.230Z,5.25
2023-05-01T00:22:57.153Z,5.23
2023-05-01T00:25:23.913Z,5.20
2023-05-01T00:27:50.538Z,5.16
2023-05-01T00:30:17.268Z,5.11
2023-05-01T00:32:44.280Z,5.07
2023-05-01T00:35:11.601Z,5.03
2023-05-01T00:37:38.719Z,4.98
2023-05-01T00:40:06.579Z,4.95
2023-05-01T00:42:38.671Z,4.91
2023-05-01T00:45:06.726Z,4.86
2023-05-01T00:47:36.073Z,4.83
2023-05-01T00:50:05.278Z,4.79
2023-05-01T00:52:31.920Z,4.76
2023-05-01T00:54:59.155Z,4.71
2023-05-01T00:57:26.150Z,4.68
2023-05-01T00:59:52.698Z,4.65
2023-05-01T01:02:19.826Z,4.63
2023-05-01T01:04:47.635Z,4.60
2023-05-01T01:07:43.739Z,4.57
2023-05-01T01:10:17.739Z,4.54
2023-05-01T01:13:19.767Z,4.51
2023-05-01T01:16:13.281Z,4.49
2023-05-01T01:18:48.170Z,4.47
2023-05-01T01:21:34.875Z,4.46
2023-05-01T01:24:27.130Z,4.42
2023-05-01T01:27:31.479Z,4.39
2023-05-01T01:30:26.307Z,4.35
2023-05-01T01:33:09.879Z,4.32
2023-05-01T01:35:41.636Z,4.29
2023-05-01T01:38:18.939Z,4.26
2023-05-01T01:41:08.695Z,4.23
2023-05-01T01:43:42.910Z,4.21
2023-05-01T01:46:11.086Z,4.21
2023-05-01T01:48:45.919Z,4.20
2023-05-01T01:51:17.696Z,4.17
2023-05-01T01:53:51.237Z,4.13
2023-05-01T01:56:22.354Z,4.09
2023-05-01T01:58:52.292Z,4.04
2023-05-01T02:01:21.564Z,3.99
2023-05-01T02:03:49.130Z,3.96
2023-05-01T02:06:17.164Z,3.86
2023-05-01T02:08:46.382Z,3.80
2023-05-01T02:11:15.268Z,3.85
2023-05-01T02:13:44.297Z,3.84
2023-05-01T02:16:12.742Z,3.81
2023-05-01T02:18:41.086Z,3.76
2023-05-01T02:21:10.331Z,3.72
2023-05-01T02:23:38.296Z,3.68
2023-05-01T02:26:09.277Z,3.64
2023-05-01T02:28:40.951Z,3.64
2023-05-01T02:31:08.379Z,3.63
2023-05-01T02:33:35.190Z,3.61
2023-05-01T02:36:01.885Z,3.57
2023-05-01T02:38:29.256Z,3.53
2023-05-01T02:40:57.830Z,3.49
2023-05-01T02:43:27.135Z,3.47
2023-05-01T02:45:54.886Z,3.44
2023-05-01T02:48:27.196Z,3.41
2023-05-01T02:50:56.143Z,3.35
2023-05-01T02:53:22.766Z,3.31
2023-05-01T02:55:52.057Z,3.28
2023-05-01T02:58:19.574Z,3.27
2023-05-01T03:00:49.070Z,3.26
2023-05-01T03:03:16.569Z,3.26
2023-05-01T03:05:43.687Z,3.25
2023-05-01T03:08:10.627Z,3.24
2023-05-01T03:10:41.089Z,3.23
2023-05-01T03:13:07.974Z,3.21
2023-05-01T03:15:34.640Z,3.20
2023-05-01T03:18:01.454Z,3.19
2023-05-01T03:20:29.558Z,3.17
2023-05-01T03:22:56.918Z,3.16
2023-05-01T03:25:23.630Z,3.13
2023-05-01T03:27:51.431Z,3.13
2023-05-01T03:30:19.178Z,3.11
2023-05-01T03:32:46.106Z,3.09
2023-05-01T03:35:18.095Z,3.08
2023-05-01T03:37:44.853Z,3.07
2023-05-01T03:40:14.034Z,3.08
2023-05-01T03:42:59.339Z,3.09
2023-05-01T03:45:26.028Z,3.08
2023-05-01T03:47:53.540Z,3.07
2023-05-01T03:50:20.243Z,3.07
2023-05-01T03:52:49.189Z,3.07
2023-05-01T03:55:15.965Z,3.08
2023-05-01T03:57:46.443Z,3.10
2023-05-01T04:00:13.758Z,3.11
2023-05-01T04:02:43.600Z,3.12
2023-05-01T04:05:13.904Z,3.14
2023-05-01T04:07:41.899Z,3.14
2023-05-01T04:10:09.268Z,3.17
2023-05-01T04:12:39.025Z,3.21
2023-05-01T04:15:07.008Z,3.24
2023-05-01T04:17:35.287Z,3.27
2023-05-01T04:20:05.091Z,3.32
2023-05-01T04:22:35.478Z,3.37
2023-05-01T04:25:02.863Z,3.42
2023-05-01T04:27:29.761Z,3.48
2023-05-01T04:29:57.048Z,3.54
2023-05-01T04:32:24.017Z,3.61
2023-05-01T04:34:50.851Z,3.69
2023-05-01T04:37:18.308Z,3.77
2023-05-01T04:39:45.040Z,3.85
2023-05-01T04:42:12.056Z,3.95
2023-05-01T04:44:39.330Z,4.04
2023-05-01T04:47:05.890Z,4.15
2023-05-01T04:49:32.687Z,4.25
2023-05-01T04:51:59.377Z,4.35
2023-05-01T04:54:32.276Z,4.46
2023-05-01T04:56:59.261Z,4.57
2023-05-01T04:59:25.827Z,4.68
2023-05-01T05:01:52.938Z,4.79
2023-05-01T05:04:20.112Z,4.89
2023-05-01T05:06:46.955Z,5.01
2023-05-01T05:09:16.958Z,5.12
2023-05-01T05:11:45.714Z,5.26
2023-05-01T05:14:20.182Z,5.35
2023-05-01T05:16:46.998Z,5.58
2023-05-01T05:19:14.346Z,5.73
2023-05-01T05:21:42.246Z,5.88
2023-05-01T05:24:08.973Z,6.03
2023-05-01T05:26:35.462Z,6.17
2023-05-01T05:29:03.742Z,6.29
2023-05-01T05:31:30.584Z,6.44
2023-05-01T05:34:00.220Z,6.60
2023-05-01T05:36:27.325Z,6.76
2023-05-01T05:38:53.999Z,6.89
2023-05-01T05:41:21.054Z,7.03
2023-05-01T05:43:48.730Z,7.19
2023-05-01T05:46:15.433Z,7.34
2023-05-01T05:48:42.042Z,7.48
2023-05-01T05:51:09.007Z,7.57
2023-05-01T05:53:35.623Z,7.80
2023-05-01T05:56:02.251Z,7.95
2023-05-01T05:58:29.934Z,8.08
2023-05-01T06:00:56.652Z,8.20
2023-05-01T06:03:24.242Z,8.32
2023-05-01T06:05:53.234Z,8.43
2023-05-01T06:08:20.039Z,8.56
2023-05-01T06:10:47.459Z,8.68
2023-05-01T06:13:15.118Z,8.80
2023-05-01T06:15:47.975Z,8.90
2023-05-01T06:18:15.157Z,9.00
2023-05-01T06:20:42.384Z,9.08
2023-05-01T06:23:09.456Z,9.16
2023-05-01T06:25:42.556Z,9.28
2023-05-01T06:28:10.495Z,9.38
2023-05-01T06:30:37.229Z,9.48
2023-05-01T06:33:04.376Z,9.59
2023-05-01T06:35:31.795Z,9.70
2023-05-01T06:37:59.629Z,9.82
2023-05-01T06:40:26.337Z,9.94
2023-05-01T06:42:53.034Z,10.01
2023-05-01T06:45:22.116Z,10.07
2023-05-01T06:47:50.001Z,10.13
2023-05-01T06:50:16.697Z,10.13
2023-05-01T06:52:43.661Z,10.27
2023-05-01T06:55:10.412Z,10.36
2023-05-01T06:57:37.139Z,10.48
2023-05-01T07:00:04.115Z,10.61
2023-05-01T07:02:31.083Z,10.70
2023-05-01T07:04:57.860Z,10.80
2023-05-01T07:07:24.343Z,10.87
2023-05-01T07:09:51.224Z,10.87
2023-05-01T07:12:18.048Z,11.03
2023-05-01T07:14:44.797Z,11.06
2023-05-01T07:17:11.541Z,11.14
2023-05-01T07:19:38.215Z,11.20
2023-05-01T07:22:04.753Z,11.25
2023-05-01T07:24:31.949Z,11.34
2023-05-01T07:26:59.498Z,11.41
2023-05-01T07:29:26.077Z,11.48
2023-05-01T07:31:52.790Z,11.58
2023-05-01T07:34:19.574Z,11.62
2023-05-01T07:36:46.405Z,11.69
2023-05-01T07:39:14.261Z,11.78
2023-05-01T07:41:41.098Z,11.85
2023-05-01T07:44:07.787Z,11.87
2023-05-01T07:46:35.787Z,11.93
2023-05-01T07:49:03.595Z,12.01
2023-05-01T07:51:30.810Z,12.10
2023-05-01T07:53:57.384Z,12.16
2023-05-01T07:56:24.006Z,12.21
2023-05-01T07:58:50.804Z,12.29
2023-05-01T08:01:17.497Z,12.36
2023-05-01T08:03:44.173Z,12.45
2023-05-01T08:06:10.991Z,12.55
2023-05-01T08:08:37.615Z,12.62
2023-05-01T08:11:05.130Z,12.73
2023-05-01T08:13:31.695Z,12.82
2023-05-01T08:16:02.791Z,12.89
2023-05-01T08:18:30.300Z,13.00
2023-05-01T08:20:56.940Z,13.14
2023-05-01T08:23:24.850Z,13.15
2023-05-01T08:25:51.852Z,13.33
2023-05-01T08:28:23.564Z,13.45
2023-05-01T08:30:58.476Z,13.57
2023-05-01T08:33:25.147Z,13.68
2023-05-01T08:35:52.268Z,13.76
2023-05-01T08:38:19.077Z,13.88
2023-05-01T08:40:53.309Z,14.00
2023-05-01T08:43:20.378Z,14.10
2023-05-01T08:45:48.369Z,14.14
2023-05-01T08:48:18.052Z,14.19
2023-05-01T08:50:46.687Z,14.27
2023-05-01T08:53:16.719Z,14.34
2023-05-01T08:55:48.124Z,14.39
2023-05-01T08:58:18.124Z,14.46
2023-05-01T09:00:47.081Z,14.52
2023-05-01T09:03:13.839Z,14.59
2023-05-01T09:05:40.783Z,14.68
2023-05-01T09:08:07.381Z,14.69
2023-05-01T09:10:41.087Z,14.82
2023-05-01T09:13:09.470Z,14.84
2023-05-01T09:15:36.063Z,14.86
2023-05-01T09:18:03.952Z,14.93
2023-05-01T09:20:31.314Z,14.96
2023-05-01T09:22:58.633Z,15.00
2023-05-01T09:25:25.374Z,15.07
2023-05-01T09:27:53.853Z,15.10
2023-05-01T09:30:31.864Z,15.14
2023-05-01T09:33:12.991Z,15.24
2023-05-01T09:35:50.948Z,15.38
2023-05-01T09:38:20.401Z,15.48
2023-05-01T09:40:47.124Z,15.55
2023-05-01T09:43:15.335Z,15.62
2023-05-01T09:45:42.266Z,15.71
2023-05-01T09:48:13.222Z,15.81
2023-05-01T09:50:42.946Z,15.87
2023-05-01T09:53:11.047Z,15.94
2023-05-01T09:55:37.597Z,15.99
2023-05-01T09:58:04.345Z,16.04
2023-05-01T10:00:31.419Z,16.09
2023-05-01T10:02:58.405Z,16.09
2023-05-01T10:05:25.756Z,16.04
2023-05-01T10:08:01.475Z,16.09
2023-05-01T10:10:28.439Z,16.14
2023-05-01T10:12:55.291Z,16.19
2023-05-01T10:15:26.014Z,16.23
2023-05-01T10:17:54.130Z,16.28
2023-05-01T10:20:21.788Z,16.34
2023-05-01T10:22:48.905Z,16.39
2023-05-01T10:25:17.470Z,16.46
2023-05-01T10:27:44.316Z,16.53
2023-05-01T10:30:11.203Z,16.56
2023-05-01T10:32:40.887Z,16.57
2023-05-01T10:35:25.830Z,16.55
2023-05-01T10:38:01.491Z,16.54
2023-05-01T10:40:44.286Z,16.53
2023-05-01T10:43:30.126Z,16.52
2023-05-01T10:46:07.950Z,16.52
2023-05-01T10:48:37.489Z,16.53
2023-05-01T10:51:11.739Z,16.53
2023-05-01T10:53:39.980Z,16.56
2023-05-01T10:56:27.526Z,16.59
2023-05-01T10:58:58.342Z,16.60
2023-05-01T11:01:30.697Z,16.63
2023-05-01T11:04:40.436Z,16.64
2023-05-01T11:07:17.328Z,16.69
2023-05-01T11:09:55.223Z,16.76
2023-05-01T11:12:51.216Z,16.82
2023-05-01T11:15:27.851Z,16.86
2023-05-01T11:17:58.317Z,16.82
2023-05-01T11:20:28.969Z,16.95
2023-05-01T11:22:58.611Z,16.94
2023-05-01T11:25:28.163Z,17.05
2023-05-01T11:27:58.274Z,17.05
2023-05-01T11:30:25.410Z,17.11
2023-05-01T11:32:55.361Z,17.17
2023-05-01T11:35:26.327Z,17.23
2023-05-01T11:37:59.074Z,17.22
2023-05-01T11:40:27.911Z,17.21
2023-05-01T11:43:01.534Z,17.24
2023-05-01T11:45:29.474Z,17.30
2023-05-01T11:47:56.662Z,17.35
2023-05-01T11:50:35.858Z,17.39
2023-05-01T11:53:17.066Z,17.39
2023-05-01T11:55:44.468Z,17.47
2023-05-01T11:58:12.054Z,17.47
2023-05-01T12:00:43.130Z,17.50
2023-05-01T12:03:14.785Z,17.53
2023-05-01T12:05:44.312Z,17.57
2023-05-01T12:08:20.093Z,17.61
2023-05-01T12:10:50.162Z,17.63
2023-05-01T12:13:20.180Z,17.68
2023-05-01T12:15:55.165Z,17.75
2023-05-01T12:18:22.457Z,17.77
2023-05-01T12:20:57.050Z,17.75
2023-05-01T12:23:38.196Z,17.76
2023-05-01T12:26:18.697Z,17.76
2023-05-01T12:29:02.643Z,17.72
2023-05-01T12:31:36.322Z,17.72
2023-05-01T12:34:07.178Z,17.73
2023-05-01T12:36:35.717Z,17.77
2023-05-01T12:39:13.111Z,17.79
2023-05-01T12:41:46.422Z,17.82
2023-05-01T12:44:16.367Z,17.84
2023-05-01T12:46:44.776Z,17.83
2023-05-01T12:49:20.115Z,17.81
2023-05-01T12:51:55.803Z,17.80
2023-05-01T12:54:33.572Z,17.80
2023-05-01T12:57:13.972Z,17.84
2023-05-01T12:59:43.478Z,17.93
2023-05-01T13:02:12.771Z,18.00
2023-05-01T13:04:40.443Z,18.02
2023-05-01T13:07:15.337Z,18.05
2023-05-01T13:10:01.649Z,18.08
2023-05-01T13:12:34.075Z,18.12
2023-05-01T13:15:07.634Z,18.09
2023-05-01T13:17:34.679Z,18.19
2023-05-01T13:20:03.769Z,18.16
2023-05-01T13:22:36.065Z,18.00
2023-05-01T13:25:05.269Z,18.23
2023-05-01T13:27:34.939Z,18.28
2023-05-01T13:30:01.737Z,18.32
2023-05-01T13:32:31.266Z,18.37
2023-05-01T13:35:00.725Z,18.36
2023-05-01T13:37:27.880Z,18.50
2023-05-01T13:39:59.835Z,18.57
2023-05-01T13:42:26.773Z,18.59
2023-05-01T13:44:55.506Z,18.52
2023-05-01T13:47:27.552Z,18.49
2023-05-01T13:49:54.945Z,18.50
2023-05-01T13:52:21.500Z,18.55
2023-05-01T13:54:48.262Z,18.57
2023-05-01T13:57:17.277Z,18.57
2023-05-01T13:59:47.560Z,18.58
2023-05-01T14:02:24.047Z,18.64
2023-05-01T14:04:51.249Z,18.68
2023-05-01T14:07:22.665Z,18.70
2023-05-01T14:09:55.335Z,18.69
2023-05-01T14:12:26.962Z,18.73
2023-05-01T14:14:53.691Z,18.75
2023-05-01T14:17:29.376Z,18.74
2023-05-01T14:19:56.114Z,18.68
2023-05-01T14:22:22.925Z,18.67
2023-05-01T14:24:50.539Z,18.62
2023-05-01T14:27:20.187Z,18.61
2023-05-01T14:29:49.208Z,18.65
2023-05-01T14:32:17.045Z,18.67
2023-05-01T14:34:45.475Z,18.65
2023-05-01T14:37:14.536Z,18.61
2023-05-01T14:39:41.451Z,18.53
2023-05-01T14:42:08.021Z,18.51
2023-05-01T14:44:39.580Z,18.54
2023-05-01T14:47:08.964Z,18.58
2023-05-01T14:49:35.573Z,18.60
2023-05-01T14:52:02.345Z,18.60
2023-05-01T14:54:32.391Z,18.60
2023-05-01T14:57:03.255Z,18.58
2023-05-01T14:59:30.227Z,18.56
2023-05-01T15:01:57.227Z,18.55
2023-05-01T15:04:24.236Z,18.54
2023-05-01T15:06:51.681Z,18.53
2023-05-01T15:09:18.627Z,18.53
2023-05-01T15:11:45.688Z,18.54
2023-05-01T15:14:12.256Z,18.53
2023-05-01T15:16:38.899Z,18.48
2023-05-01T15:19:05.432Z,18.43
2023-05-01T15:21:32.675Z,18.38
2023-05-01T15:23:59.871Z,18.33
2023-05-01T15:26:26.408Z,18.33
2023-05-01T15:28:53.083Z,18.33
2023-05-01T15:31:19.903Z,18.37
2023-05-01T15:33:46.522Z,18.38
2023-05-01T15:36:13.572Z,18.42
2023-05-01T15:38:40.164Z,18.45
2023-05-01T15:41:06.812Z,18.43
2023-05-01T15:43:33.390Z,18.40
2023-05-01T15:46:00.467Z,18.37
2023-05-01T15:48:27.846Z,18.32
2023-05-01T15:50:54.417Z,18.27
2023-05-01T15:53:23.866Z,18.19
2023-05-01T15:55:51.239Z,18.06
2023-05-01T15:58:20.357Z,18.09
2023-05-01T16:00:52.971Z,18.06
2023-05-01T16:03:31.760Z,18.05
2023-05-01T16:05:58.995Z,18.02
2023-05-01T16:08:26.842Z,17.74
2023-05-01T16:10:54.907Z,18.00
2023-05-01T16:13:21.808Z,17.68
2023-05-01T16:15:48.721Z,17.94
2023-05-01T16:18:20.215Z,17.91
2023-05-01T16:20:47.436Z,17.90
2023-05-01T16:23:17.851Z,17.87
2023-05-01T16:25:46.848Z,17.85
2023-05-01T16:28:19.961Z,17.81
2023-05-01T16:30:48.617Z,17.75
2023-05-01T16:33:23.054Z,17.68
2023-05-01T16:35:52.594Z,17.61
2023-05-01T16:38:20.337Z,17.56
2023-05-01T16:40:49.581Z,17.52
2023-05-01T16:43:16.541Z,17.46
2023-05-01T16:45:47.023Z,17.40
2023-05-01T16:48:22.809Z,17.30
2023-05-01T16:50:57.717Z,17.31
2023-05-01T16:53:25.460Z,17.25
2023-05-01T16:55:54.462Z,17.22
2023-05-01T16:58:29.576Z,17.17
2023-05-01T17:00:57.115Z,17.12
2023-05-01T17:03:23.963Z,17.05
2023-05-01T17:05:51.010Z,17.00
2023-05-01T17:08:17.568Z,16.94
2023-05-01T17:10:44.606Z,16.87
2023-05-01T17:13:15.547Z,16.82
2023-05-01T17:15:42.262Z,16.76
2023-05-01T17:18:08.792Z,16.71
2023-05-01T17:20:41.623Z,16.65
2023-05-01T17:23:09.150Z,16.58
2023-05-01T17:25:36.624Z,16.53
2023-05-01T17:28:03.245Z,16.47
2023-05-01T17:30:29.767Z,16.41
2023-05-01T17:32:56.540Z,16.36
2023-05-01T17:35:23.258Z,16.29
2023-05-01T17:37:49.928Z,16.23
2023-05-01T17:40:16.650Z,16.16
2023-05-01T17:42:44.016Z,16.09
2023-05-01T17:45:11.002Z,16.02
2023-05-01T17:47:42.103Z,15.95
2023-05-01T17:50:11.188Z,15.86
2023-05-01T17:52:38.850Z,15.79
2023-05-01T17:55:06.113Z,15.71
2023-05-01T17:57:32.866Z,15.63
2023-05-01T17:59:59.981Z,15.56
2023-05-01T18:02:41.633Z,15.49
2023-05-01T18:05:08.363Z,15.33
2023-05-01T18:07:35.004Z,15.34
2023-05-01T18:10:02.393Z,15.25
2023-05-01T18:12:30.612Z,15.18
2023-05-01T18:14:57.150Z,15.11
2023-05-01T18:17:24.867Z,15.03
2023-05-01T18:19:51.428Z,14.96
2023-05-01T18:22:18.238Z,14.87
2023-05-01T18:24:45.678Z,14.78
2023-05-01T18:27:12.244Z,14.69
2023-05-01T18:29:38.756Z,14.61
2023-05-01T18:32:06.444Z,14.52
2023-05-01T18:34:33.027Z,14.42
2023-05-01T18:36:59.488Z,14.33
2023-05-01T18:39:26.238Z,14.23
2023-05-01T18:41:55.055Z,14.16
2023-05-01T18:44:21.664Z,14.08
2023-05-01T18:46:48.568Z,14.00
2023-05-01T18:49:23.029Z,13.91
2023-05-01T18:51:51.258Z,13.81
2023-05-01T18:54:18.344Z,13.70
2023-05-01T18:56:45.180Z,13.53
2023-05-01T18:59:11.942Z,13.47
2023-05-01T19:01:38.546Z,13.38
2023-05-01T19:04:06.054Z,13.30
2023-05-01T19:06:33.218Z,13.24
2023-05-01T19:08:59.888Z,13.18
2023-05-01T19:11:31.016Z,13.13
2023-05-01T19:13:58.121Z,13.08
2023-05-01T19:16:25.612Z,13.05
2023-05-01T19:18:52.321Z,13.01
2023-05-01T19:21:19.255Z,12.98
2023-05-01T19:23:46.772Z,12.95
2023-05-01T19:26:13.286Z,12.92
2023-05-01T19:28:42.909Z,12.88
2023-05-01T19:31:11.353Z,12.85
2023-05-01T19:33:39.650Z,12.81
2023-05-01T19:36:06.412Z,12.78
2023-05-01T19:38:33.421Z,12.75
2023-05-01T19:40:59.961Z,12.71
2023-05-01T19:43:29.144Z,12.68
2023-05-01T19:45:56.081Z,12.66
2023-05-01T19:48:25.868Z,12.62
2023-05-01T19:50:52.498Z,12.56
2023-05-01T19:53:20.426Z,12.55
2023-05-01T19:55:48.031Z,12.52
2023-05-01T19:58:15.198Z,12.49
2023-05-01T20:00:41.917Z,12.47
2023-05-01T20:03:09.887Z,12.43
2023-05-01T20:05:36.909Z,12.39
2023-05-01T20:08:04.675Z,12.35
2023-05-01T20:10:32.114Z,12.31
2023-05-01T20:12:59.544Z,12.26
2023-05-01T20:15:26.230Z,12.21
2023-05-01T20:17:52.974Z,12.18
2023-05-01T20:20:19.650Z,12.14
2023-05-01T20:22:46.944Z,12.11
2023-05-01T20:25:14.157Z,12.05
2023-05-01T20:27:41.240Z,12.05
2023-05-01T20:30:12.086Z,12.03
2023-05-01T20:32:44.920Z,12.01
2023-05-01T20:35:13.948Z,11.99
2023-05-01T20:37:40.847Z,11.96
2023-05-01T20:40:11.029Z,11.94
2023-05-01T20:42:37.587Z,11.92
2023-05-01T20:45:04.880Z,11.89
2023-05-01T20:47:33.064Z,11.86
2023-05-01T20:49:59.738Z,11.83
2023-05-01T20:52:27.273Z,11.82
2023-05-01T20:54:54.026Z,11.79
2023-05-01T20:57:21.387Z,11.75
2023-05-01T20:59:49.315Z,11.71
2023-05-01T21:02:16.711Z,11.68
2023-05-01T21:04:43.611Z,11.64
2023-05-01T21:07:10.221Z,11.60
2023-05-01T21:09:37.045Z,11.56
2023-05-01T21:12:05.610Z,11.52
2023-05-01T21:14:32.362Z,11.49
2023-05-01T21:16:59.085Z,11.45
2023-05-01T21:19:26.240Z,11.41
2023-05-01T21:21:55.832Z,11.37
2023-05-01T21:24:24.665Z,11.32
2023-05-01T21:26:53.957Z,11.28
2023-05-01T21:29:20.506Z,11.24
2023-05-01T21:31:48.512Z,11.20
2023-05-01T21:34:18.007Z,11.15
2023-05-01T21:36:44.523Z,11.09
2023-05-01T21:39:11.710Z,11.03
2023-05-01T21:41:40.010Z,10.97
2023-05-01T21:44:07.867Z,10.91
2023-05-01T21:46:36.845Z,10.85
2023-05-01T21:49:03.913Z,10.80
2023-05-01T21:51:32.347Z,10.73
2023-05-01T21:54:00.952Z,10.53
2023-05-01T21:56:27.958Z,10.61
2023-05-01T21:59:00.873Z,10.53
2023-05-01T22:01:28.108Z,10.50
2023-05-01T22:03:55.144Z,10.43
2023-05-01T22:06:23.685Z,10.38
2023-05-01T22:08:53.675Z,10.33
2023-05-01T22:11:22.794Z,10.29
2023-05-01T22:13:49.471Z,10.24
2023-05-01T22:16:17.040Z,10.20
2023-05-01T22:18:43.795Z,10.17
2023-05-01T22:21:10.369Z,10.14
2023-05-01T22:23:37.464Z,10.10
2023-05-01T22:26:04.232Z,10.08
2023-05-01T22:28:30.818Z,10.07
2023-05-01T22:30:57.525Z,10.03
2023-05-01T22:33:24.235Z,10.00
2023-05-01T22:35:50.810Z,9.99
2023-05-01T22:38:17.509Z,9.98
2023-05-01T22:40:44.174Z,9.97
2023-05-01T22:43:10.720Z,9.96
2023-05-01T22:45:38.249Z,9.96
2023-05-01T22:48:05.474Z,9.95
2023-05-01T22:50:32.737Z,9.94
2023-05-01T22:53:00.067Z,9.93
2023-05-01T22:55:27.215Z,9.93
2023-05-01T22:57:54.007Z,9.90
2023-05-01T23:00:22.032Z,9.90
2023-05-01T23:02:49.643Z,9.89
2023-05-01T23:05:17.209Z,9.88
2023-05-01T23:07:43.871Z,9.86
2023-05-01T23:10:10.745Z,9.85
2023-05-01T23:12:43.176Z,9.85
2023-05-01T23:15:16.875Z,9.84
2023-05-01T23:17:43.929Z,9.83
2023-05-01T23:20:19.563Z,9.83
2023-05-01T23:22:47.052Z,9.82
2023-05-01T23:25:25.934Z,9.82
2023-05-01T23:27:54.383Z,9.81
2023-05-01T23:30:21.389Z,9.82
2023-05-01T23:32:48.701Z,9.82
2023-05-01T23:35:20.432Z,9.82
2023-05-01T23:37:47.140Z,9.83
2023-05-01T23:40:13.724Z,9.84
2023-05-01T23:42:40.424Z,9.85
2023-05-01T23:45:07.555Z,9.86
2023-05-01T23:47:34.591Z,9.87
2023-05-01T23:50:01.644Z,9.87
2023-05-01T23:52:28.716Z,9.88
2023-05-01T23:54:55.242Z,9.87
2023-05-01T23:57:22.013Z,9.87
2023-05-01T23:59:48.718Z,9.87
